Airfield :







YOU CAN JOIN US ON...

 
LOGIN :

Register | Disclaimer

   EN    FR    IT 

 









Legend :    VFR   Marginal VFR   IFR   Intensive IFR   Very Intensive IFR
Visi :
Ceiling :
>= 8 km
>= 3000ft
5 to 8 km
1000 to 3000 ft
1500m to 5 km
500 to 1000 ft
800 to 1500m
200 to 500 ft
< 800m
< 200 ft
Symbols :   Thunderstorms  Fog  Heavy snow  Heavy precipitations  Wind > 20 kt







- Airport Elevation : 129 ft
- IATA code : YVP


CYVP - Kuujjuak

CURRENT METAR :
  • 242100Z 01009G21KT 340V060 15SM FEW025 SCT260 15/04 A2997 RMK CF1CI3 CF TR SLP154

EXPIRED METARs :
  • 242000Z 36016G23KT 15SM FEW025 SCT260 15/04 A2997 RMK CF1CI4 CF TR SLP152 DENSITY ALT 200FT
  • 241900Z 36014G22KT 15SM FEW025 SCT260 15/04 A2996 RMK CF1CI4 CF TR SLP149 DENSITY ALT 200FT

TAF TAF CYVP
Valid from the 24 at 18:00 until the 25 at 06:00 UTC


241738Z 2418/2506 35015G25KT P6SM SKC
BECMG 2422/2424 36010KT
BECMG 2504/2506 VRB03KT RMK NXT FCST BY 250000Z
CZUL FIR / North America



MET'MAP, your aeronautical weather chart ! - Copyright ORBIFLY December 2007 - Disclaimer

ORBIFLY MET'MAP TEAM :

Programming & Development : Alexandra Zaïnal
Concept & Development : Baudouin d'Aumeries
Co-Development & Prog : Marc-Olivier Méhu
Technical & hardware support : Manuel Goepfert

Contact : metmap@orbifly.com




SOURCES & CREDITS :

   NOAA